createdAt,value
2017-07-08T00:00:54.136Z,17.80
2017-07-08T00:03:21.890Z,17.80
2017-07-08T00:05:49.717Z,17.70
2017-07-08T00:08:17.465Z,17.60
2017-07-08T00:10:45.223Z,17.60
2017-07-08T00:13:13.008Z,17.60
2017-07-08T00:15:40.775Z,17.50
2017-07-08T00:18:08.761Z,17.50
2017-07-08T00:20:36.504Z,17.40
2017-07-08T00:23:04.272Z,17.40
2017-07-08T00:25:32.053Z,17.40
2017-07-08T00:27:59.855Z,17.40
2017-07-08T00:30:27.661Z,17.40
2017-07-08T00:32:55.404Z,17.40
2017-07-08T00:35:23.146Z,17.40
2017-07-08T00:37:50.921Z,17.30
2017-07-08T00:40:18.659Z,17.30
2017-07-08T00:42:46.991Z,17.30
2017-07-08T00:45:14.745Z,17.30
2017-07-08T00:47:42.490Z,17.30
2017-07-08T00:50:10.269Z,17.20
2017-07-08T00:52:38.011Z,17.20
2017-07-08T00:55:05.816Z,17.30
2017-07-08T00:57:34.335Z,17.20
2017-07-08T01:00:02.079Z,17.20
2017-07-08T01:02:29.864Z,17.10
2017-07-08T01:04:57.617Z,17.10
2017-07-08T01:07:25.425Z,17.10
2017-07-08T01:09:53.167Z,17.10
2017-07-08T01:12:20.919Z,17.00
2017-07-08T01:14:48.689Z,17.00
2017-07-08T01:17:16.445Z,16.90
2017-07-08T01:19:44.269Z,16.90
2017-07-08T01:22:12.019Z,16.90
2017-07-08T01:24:40.544Z,16.90
2017-07-08T01:27:08.329Z,16.90
2017-07-08T01:29:36.067Z,16.80
2017-07-08T01:32:03.883Z,16.80
2017-07-08T01:34:32.403Z,16.80
2017-07-08T01:37:00.157Z,16.70
2017-07-08T01:39:27.935Z,16.80
2017-07-08T01:41:55.678Z,16.70
2017-07-08T01:44:23.887Z,16.70
2017-07-08T01:46:51.647Z,16.80
2017-07-08T01:49:19.402Z,16.80
2017-07-08T01:51:47.201Z,16.80
2017-07-08T01:54:15.732Z,16.70
2017-07-08T01:56:43.545Z,16.60
2017-07-08T01:59:12.068Z,16.50
2017-07-08T02:01:39.821Z,16.50
2017-07-08T02:04:07.625Z,16.50
2017-07-08T02:06:35.382Z,16.50
2017-07-08T02:09:03.198Z,16.50
2017-07-08T02:11:30.942Z,16.40
2017-07-08T02:13:58.694Z,16.40
2017-07-08T02:16:27.261Z,16.30
2017-07-08T02:18:55.810Z,16.30
2017-07-08T02:21:24.506Z,16.20
2017-07-08T02:23:52.266Z,16.30
2017-07-08T02:26:20.029Z,16.30
2017-07-08T02:28:47.812Z,16.20
2017-07-08T02:31:16.333Z,16.20
2017-07-08T02:33:44.137Z,16.20
2017-07-08T02:36:11.874Z,16.20
2017-07-08T02:38:39.625Z,16.20
2017-07-08T02:41:07.397Z,16.30
2017-07-08T02:43:35.136Z,16.20
2017-07-08T02:46:02.934Z,16.20
2017-07-08T02:48:30.671Z,16.20
2017-07-08T02:50:58.425Z,16.20
2017-07-08T02:53:26.195Z,16.20
2017-07-08T02:55:53.926Z,16.20
2017-07-08T02:58:21.771Z,16.20
2017-07-08T03:00:50.280Z,16.30
2017-07-08T03:03:18.048Z,16.20
2017-07-08T03:05:45.819Z,16.20
2017-07-08T03:08:13.648Z,16.30
2017-07-08T03:10:42.206Z,16.30
2017-07-08T03:13:09.955Z,16.30
2017-07-08T03:15:37.713Z,16.40
2017-07-08T03:18:05.488Z,16.50
2017-07-08T03:20:33.239Z,16.40
2017-07-08T03:23:01.030Z,16.40
2017-07-08T03:25:29.550Z,16.50
2017-07-08T03:27:57.304Z,16.40
2017-07-08T03:30:25.078Z,16.50
2017-07-08T03:32:52.847Z,16.60
2017-07-08T03:35:20.638Z,16.90
2017-07-08T03:37:48.380Z,17.10
2017-07-08T03:40:16.140Z,17.00
2017-07-08T03:42:43.916Z,17.00
2017-07-08T03:45:11.681Z,17.10
2017-07-08T03:47:39.480Z,17.10
2017-07-08T03:50:07.222Z,17.20
2017-07-08T03:52:35.736Z,17.50
2017-07-08T03:55:03.516Z,17.40
2017-07-08T03:57:31.263Z,17.60
2017-07-08T03:59:59.067Z,18.10
2017-07-08T04:02:26.818Z,18.80
2017-07-08T04:04:54.562Z,19.30
2017-07-08T04:07:22.331Z,19.50
2017-07-08T04:09:50.098Z,19.60
2017-07-08T04:12:17.904Z,19.40
2017-07-08T04:14:45.644Z,19.40
2017-07-08T04:17:13.393Z,19.40
2017-07-08T04:19:41.171Z,19.50
2017-07-08T04:22:09.694Z,19.60
2017-07-08T04:24:37.492Z,19.60
2017-07-08T04:27:05.239Z,20.10
2017-07-08T04:29:32.983Z,20.70
2017-07-08T04:32:00.770Z,21.30
2017-07-08T04:34:28.507Z,21.70
2017-07-08T04:36:56.313Z,21.40
2017-07-08T04:39:24.073Z,21.30
2017-07-08T04:41:51.813Z,21.20
2017-07-08T04:44:19.598Z,21.00
2017-07-08T04:46:48.131Z,20.80
2017-07-08T04:49:15.945Z,20.80
2017-07-08T04:51:44.463Z,20.80
2017-07-08T04:54:12.211Z,20.70
2017-07-08T04:56:39.986Z,20.60
2017-07-08T04:59:07.727Z,20.60
2017-07-08T05:01:35.532Z,20.80
2017-07-08T05:04:03.292Z,20.80
2017-07-08T05:06:31.025Z,20.60
2017-07-08T05:08:58.796Z,20.30
2017-07-08T05:11:26.546Z,20.40
2017-07-08T05:13:54.669Z,20.40
2017-07-08T05:16:22.415Z,20.20
2017-07-08T05:18:50.168Z,20.00
2017-07-08T05:21:17.978Z,19.90
2017-07-08T05:23:46.495Z,19.90
2017-07-08T05:26:14.306Z,19.90
2017-07-08T05:28:42.056Z,19.90
2017-07-08T05:31:09.816Z,19.90
2017-07-08T05:33:37.616Z,20.00
2017-07-08T05:36:05.374Z,20.00
2017-07-08T05:38:33.215Z,19.90
2017-07-08T05:41:01.751Z,20.00
2017-07-08T05:43:29.499Z,20.00
2017-07-08T05:45:57.279Z,20.40
2017-07-08T05:48:25.056Z,20.60
2017-07-08T05:50:52.861Z,20.80
2017-07-08T05:53:20.619Z,20.90
2017-07-08T05:55:49.168Z,21.00
2017-07-08T05:58:16.957Z,21.00
2017-07-08T06:00:45.479Z,21.20
2017-07-08T06:03:13.306Z,21.20
2017-07-08T06:05:41.817Z,21.70
2017-07-08T06:08:09.565Z,21.70
2017-07-08T06:10:37.341Z,22.50
2017-07-08T06:13:05.084Z,23.70
2017-07-08T06:15:32.888Z,25.10
2017-07-08T06:18:01.442Z,27.60
2017-07-08T06:20:31.552Z,27.50
2017-07-08T06:23:01.625Z,27.90
2017-07-08T06:33:06.470Z,27.30
2017-07-08T06:35:34.257Z,28.00
2017-07-08T06:38:04.063Z,31.10
2017-07-08T06:40:31.933Z,31.10
2017-07-08T06:43:00.445Z,32.50
2017-07-08T06:45:28.259Z,32.40
2017-07-08T06:47:56.042Z,33.20
2017-07-08T06:50:23.863Z,34.60
2017-07-08T06:52:51.639Z,34.90
2017-07-08T06:55:19.398Z,35.60
2017-07-08T06:57:47.200Z,36.70
2017-07-08T07:00:16.150Z,37.40
2017-07-08T07:02:43.885Z,37.30
2017-07-08T07:05:11.679Z,37.50
2017-07-08T07:07:39.418Z,38.20
2017-07-08T07:10:07.216Z,37.90
2017-07-08T07:12:35.729Z,37.10
2017-07-08T07:15:03.468Z,37.10
2017-07-08T07:17:32.018Z,36.60
2017-07-08T07:19:59.761Z,36.70
2017-07-08T07:22:28.155Z,35.90
2017-07-08T07:24:56.188Z,36.00
2017-07-08T07:27:23.954Z,36.60
2017-07-08T07:29:52.469Z,37.20
2017-07-08T07:32:20.233Z,37.60
2017-07-08T07:34:48.027Z,37.30
2017-07-08T07:37:15.775Z,37.00
2017-07-08T07:39:45.556Z,34.20
2017-07-08T07:42:13.355Z,34.20
2017-07-08T07:44:41.282Z,32.60
2017-07-08T07:47:09.657Z,32.60
2017-07-08T07:49:38.010Z,33.20
2017-07-08T07:52:12.664Z,34.10
2017-07-08T07:54:41.882Z,34.10
2017-07-08T07:57:10.532Z,35.60
2017-07-08T07:59:38.805Z,35.50
2017-07-08T08:02:09.548Z,36.20
2017-07-08T08:04:37.358Z,36.90
2017-07-08T08:07:05.092Z,38.30
2017-07-08T08:09:33.705Z,38.40
2017-07-08T08:12:02.150Z,38.40
2017-07-08T08:14:30.671Z,37.40
2017-07-08T08:16:58.463Z,37.30
2017-07-08T08:19:26.267Z,36.40
2017-07-08T08:21:55.428Z,35.10
2017-07-08T08:24:23.308Z,34.60
2017-07-08T08:26:51.101Z,34.10
2017-07-08T08:29:20.697Z,34.30
2017-07-08T08:31:49.403Z,34.30
2017-07-08T08:34:19.152Z,34.70
2017-07-08T08:36:52.025Z,33.80
2017-07-08T08:39:24.599Z,33.80
2017-07-08T08:47:05.606Z,32.00
2017-07-08T08:49:36.546Z,31.20
2017-07-08T08:52:11.481Z,30.40
2017-07-08T08:54:40.879Z,30.60
2017-07-08T08:59:48.362Z,30.50
2017-07-08T09:02:19.122Z,29.90
2017-07-08T09:04:47.305Z,30.40
2017-07-08T09:07:17.057Z,31.10
2017-07-08T09:12:19.350Z,31.00
2017-07-08T09:14:47.131Z,30.60
2017-07-08T09:17:18.959Z,30.20
2017-07-08T09:24:55.063Z,29.50
2017-07-08T09:27:26.239Z,30.20
2017-07-08T09:30:00.471Z,30.20
2017-07-08T09:32:30.605Z,30.60
2017-07-08T09:35:00.985Z,31.80
2017-07-08T09:37:30.654Z,34.40
2017-07-08T09:39:59.307Z,34.40
2017-07-08T09:42:27.341Z,34.40
2017-07-08T09:44:58.472Z,34.10
2017-07-08T09:47:29.480Z,33.40
2017-07-08T09:50:02.591Z,32.70
2017-07-08T09:52:33.126Z,32.70
2017-07-08T09:55:02.837Z,32.00
2017-07-08T09:57:32.895Z,31.60
2017-07-08T10:00:01.938Z,31.40
2017-07-08T10:07:40.378Z,30.00
2017-07-08T10:10:10.570Z,30.00
2017-07-08T10:12:40.992Z,29.70
2017-07-08T10:15:11.690Z,29.70
2017-07-08T10:17:41.118Z,29.50
2017-07-08T10:20:15.740Z,29.70
2017-07-08T10:22:44.493Z,30.50
2017-07-08T10:25:15.157Z,30.30
2017-07-08T10:30:18.201Z,30.40
2017-07-08T10:32:48.475Z,30.70
2017-07-08T10:40:23.450Z,29.90
2017-07-08T10:42:52.117Z,29.90
2017-07-08T10:45:22.206Z,29.50
2017-07-08T10:47:55.415Z,30.20
2017-07-08T10:50:28.952Z,30.20
2017-07-08T10:53:02.097Z,30.60
2017-07-08T10:55:32.164Z,30.50
2017-07-08T10:58:03.043Z,30.40
2017-07-08T11:00:31.341Z,30.30
2017-07-08T11:02:59.401Z,29.80
2017-07-08T11:05:28.727Z,29.60
2017-07-08T11:07:58.916Z,29.80
2017-07-08T11:15:33.157Z,30.00
2017-07-08T11:18:01.844Z,29.90
2017-07-08T11:20:29.802Z,29.30
2017-07-08T11:22:58.551Z,29.00
2017-07-08T11:25:26.410Z,29.00
2017-07-08T11:27:54.290Z,28.60
2017-07-08T11:30:23.102Z,28.40
2017-07-08T11:32:51.007Z,28.70
2017-07-08T11:35:18.863Z,29.20
2017-07-08T11:37:46.811Z,29.40
2017-07-08T11:42:50.204Z,29.80
2017-07-08T11:47:56.389Z,29.70
2017-07-08T11:50:25.120Z,29.20
2017-07-08T11:52:53.420Z,29.20
2017-07-08T11:55:21.246Z,29.00
2017-07-08T11:57:49.064Z,28.40
2017-07-08T12:00:17.731Z,28.10
2017-07-08T12:02:46.471Z,28.10
2017-07-08T12:05:14.342Z,28.30
2017-07-08T12:07:42.916Z,28.50
2017-07-08T12:10:11.627Z,28.50
2017-07-08T12:12:39.420Z,28.30
2017-07-08T12:15:07.200Z,27.80
2017-07-08T12:17:35.749Z,26.90
2017-07-08T12:20:03.524Z,26.90
2017-07-08T12:22:31.268Z,26.60
2017-07-08T12:24:59.094Z,26.40
2017-07-08T12:27:26.867Z,26.30
2017-07-08T12:29:55.387Z,26.00
2017-07-08T12:32:23.209Z,25.40
2017-07-08T12:34:50.947Z,24.70
2017-07-08T12:37:18.801Z,24.10
2017-07-08T12:40:19.618Z,21.60
2017-07-08T12:42:48.698Z,18.80
2017-07-08T12:47:58.279Z,18.10
2017-07-08T12:50:28.341Z,17.80
2017-07-08T12:55:48.616Z,18.10
2017-07-08T12:58:18.020Z,18.30
2017-07-08T13:00:46.551Z,18.50
2017-07-08T13:03:14.312Z,18.70
2017-07-08T13:05:42.146Z,19.00
2017-07-08T13:08:09.897Z,19.30
2017-07-08T13:10:37.848Z,19.50
2017-07-08T13:13:05.616Z,19.50
2017-07-08T13:15:33.366Z,19.90
2017-07-08T13:18:01.138Z,20.10
2017-07-08T13:20:28.883Z,20.40
2017-07-08T13:22:56.681Z,20.60
2017-07-08T13:25:24.425Z,21.00
2017-07-08T13:27:52.200Z,21.10
2017-07-08T13:30:19.981Z,21.20
2017-07-08T13:32:49.955Z,21.20
2017-07-08T13:35:18.059Z,21.40
2017-07-08T13:37:47.946Z,21.60
2017-07-08T13:40:16.479Z,21.80
2017-07-08T13:42:45.938Z,22.30
2017-07-08T13:45:14.513Z,22.30
2017-07-08T13:47:44.857Z,22.80
2017-07-08T13:50:12.638Z,22.80
2017-07-08T13:52:40.391Z,22.80
2017-07-08T13:55:08.176Z,22.90
2017-07-08T13:57:36.705Z,23.10
2017-07-08T14:00:04.539Z,23.10
2017-07-08T14:02:32.301Z,23.10
2017-07-08T14:05:00.176Z,23.20
2017-07-08T14:07:27.956Z,23.40
2017-07-08T14:09:55.739Z,23.40
2017-07-08T14:12:24.447Z,23.60
2017-07-08T14:14:53.370Z,24.00
2017-07-08T14:17:21.143Z,23.90
2017-07-08T14:19:48.916Z,24.20
2017-07-08T14:22:16.657Z,24.20
2017-07-08T14:24:44.463Z,23.90
2017-07-08T14:27:12.182Z,23.70
2017-07-08T14:29:39.901Z,23.80
2017-07-08T14:32:07.660Z,23.90
2017-07-08T14:34:35.412Z,23.80
2017-07-08T14:37:03.293Z,23.70
2017-07-08T14:39:31.959Z,23.60
2017-07-08T14:41:59.694Z,23.60
2017-07-08T14:44:27.478Z,23.60
2017-07-08T14:46:55.220Z,23.50
2017-07-08T14:49:23.053Z,23.40
2017-07-08T14:51:50.808Z,23.30
2017-07-08T14:54:18.551Z,23.30
2017-07-08T14:56:47.115Z,23.60
2017-07-08T14:59:15.636Z,23.60
2017-07-08T15:01:43.904Z,23.60
2017-07-08T15:04:11.649Z,23.60
2017-07-08T15:06:39.407Z,23.70
2017-07-08T15:09:07.942Z,23.90
2017-07-08T15:11:35.674Z,23.90
2017-07-08T15:14:03.483Z,24.20
2017-07-08T15:16:32.061Z,24.40
2017-07-08T15:18:59.892Z,24.40
2017-07-08T15:21:27.701Z,24.50
2017-07-08T15:23:56.552Z,24.90
2017-07-08T15:26:25.364Z,24.90
2017-07-08T15:28:57.709Z,25.00
2017-07-08T15:31:26.403Z,25.30
2017-07-08T15:33:56.222Z,25.50
2017-07-08T15:36:23.980Z,25.50
2017-07-08T15:38:52.916Z,25.60
2017-07-08T15:41:20.737Z,25.60
2017-07-08T15:43:48.596Z,25.60
2017-07-08T15:46:16.351Z,25.50
2017-07-08T15:48:44.146Z,25.40
2017-07-08T15:51:12.304Z,25.40
2017-07-08T15:53:40.877Z,25.20
2017-07-08T15:56:09.548Z,25.00
2017-07-08T15:58:37.358Z,25.00
2017-07-08T16:01:05.479Z,24.90
2017-07-08T16:03:33.539Z,24.90
2017-07-08T16:06:01.424Z,24.80
2017-07-08T16:08:30.050Z,24.50
2017-07-08T16:10:57.994Z,24.50
2017-07-08T16:13:25.817Z,24.40
2017-07-08T16:15:54.409Z,24.80
2017-07-08T16:18:22.222Z,24.80
2017-07-08T16:20:50.035Z,25.10
2017-07-08T16:23:18.544Z,25.30
2017-07-08T16:25:46.313Z,25.30
2017-07-08T16:28:14.084Z,25.40
2017-07-08T16:30:41.835Z,25.50
2017-07-08T16:33:10.216Z,25.60
2017-07-08T16:35:38.873Z,25.90
2017-07-08T16:38:07.032Z,26.20
2017-07-08T16:40:35.628Z,26.10
2017-07-08T16:43:04.165Z,25.80
2017-07-08T16:45:32.973Z,25.60
2017-07-08T16:48:01.551Z,25.10
2017-07-08T16:50:29.297Z,25.10
2017-07-08T16:52:58.406Z,24.60
2017-07-08T16:55:26.161Z,23.50
2017-07-08T16:57:53.948Z,21.50
2017-07-08T17:03:47.705Z,20.60
2017-07-08T17:06:17.958Z,20.80
2017-07-08T18:45:07.074Z,19.40
2017-07-08T18:47:39.530Z,19.40
2017-07-08T18:50:09.277Z,19.20
2017-07-08T18:52:37.029Z,19.20
2017-07-08T18:55:04.924Z,19.20
2017-07-08T18:57:32.672Z,19.10
2017-07-08T19:00:00.467Z,19.00
2017-07-08T19:02:28.200Z,18.90
2017-07-08T19:04:55.947Z,18.80
2017-07-08T19:07:23.707Z,18.80
2017-07-08T19:09:51.467Z,18.70
2017-07-08T19:12:19.257Z,18.70
2017-07-08T19:14:46.994Z,18.60
2017-07-08T19:17:14.723Z,18.50
2017-07-08T19:19:42.500Z,18.50
2017-07-08T19:22:10.235Z,18.50
2017-07-08T19:24:38.784Z,18.40
2017-07-08T19:27:06.512Z,18.40
2017-07-08T19:29:34.239Z,18.40
2017-07-08T19:32:02.002Z,18.30
2017-07-08T19:34:30.497Z,18.20
2017-07-08T19:36:58.289Z,18.10
2017-07-08T19:39:26.040Z,18.10
2017-07-08T19:41:53.798Z,18.10
2017-07-08T19:44:21.580Z,18.10
2017-07-08T19:46:50.040Z,18.10
2017-07-08T19:49:20.518Z,18.00
2017-07-08T19:51:49.139Z,17.90
2017-07-08T19:54:16.920Z,17.90
2017-07-08T19:56:45.158Z,17.80
2017-07-08T19:59:15.129Z,17.80
2017-07-08T20:01:43.913Z,17.80
2017-07-08T20:04:12.166Z,17.80
2017-07-08T20:06:40.039Z,17.70
2017-07-08T20:11:42.281Z,17.70
2017-07-08T20:14:10.199Z,17.50
2017-07-08T20:16:38.362Z,17.40
2017-07-08T20:19:06.733Z,17.30
2017-07-08T20:21:34.525Z,17.30
2017-07-08T20:24:03.053Z,17.30
2017-07-08T20:26:30.875Z,17.20
2017-07-08T20:28:59.445Z,17.20
2017-07-08T20:31:27.980Z,17.20
2017-07-08T20:33:55.766Z,17.20
2017-07-08T20:36:23.521Z,17.20
2017-07-08T20:38:51.364Z,17.20
2017-07-08T20:41:19.117Z,17.20
2017-07-08T20:43:46.894Z,17.10
2017-07-08T20:46:14.695Z,17.10
2017-07-08T20:48:43.226Z,16.90
2017-07-08T20:51:11.038Z,16.90
2017-07-08T20:53:39.566Z,16.80
2017-07-08T20:56:07.322Z,16.90
2017-07-08T20:58:35.099Z,16.90
2017-07-08T21:01:02.844Z,16.80
2017-07-08T21:03:30.888Z,16.80
2017-07-08T21:05:58.648Z,16.80
2017-07-08T21:08:26.408Z,16.80
2017-07-08T21:10:54.189Z,16.70
2017-07-08T21:13:21.953Z,16.70
2017-07-08T21:15:49.783Z,16.70
2017-07-08T21:18:17.533Z,16.70
2017-07-08T21:20:45.281Z,16.70
2017-07-08T21:23:13.071Z,16.70
2017-07-08T21:25:41.592Z,16.60
2017-07-08T21:28:09.390Z,16.60
2017-07-08T21:30:37.148Z,16.60
2017-07-08T21:33:04.902Z,16.60
2017-07-08T21:35:32.672Z,16.60
2017-07-08T21:38:00.421Z,16.60
2017-07-08T21:40:28.230Z,16.60
2017-07-08T21:42:56.115Z,16.50
2017-07-08T21:45:23.878Z,16.40
2017-07-08T21:47:51.665Z,16.40
2017-07-08T21:50:19.429Z,16.40
2017-07-08T21:52:47.247Z,16.40
2017-07-08T21:55:15.002Z,16.40
2017-07-08T21:57:42.768Z,16.40
2017-07-08T22:00:10.558Z,16.30
2017-07-08T22:05:29.180Z,16.30
2017-07-08T22:07:57.909Z,16.20
2017-07-08T22:10:26.123Z,16.20
2017-07-08T22:12:53.927Z,16.20
2017-07-08T22:15:21.698Z,16.10
2017-07-08T22:17:49.516Z,16.10
2017-07-08T22:20:17.287Z,16.10
2017-07-08T22:22:45.044Z,16.30
2017-07-08T22:25:12.829Z,16.30
2017-07-08T22:27:40.592Z,16.20
2017-07-08T22:30:08.420Z,16.10
2017-07-08T22:32:36.190Z,16.10
2017-07-08T22:35:03.957Z,16.00
2017-07-08T22:37:31.760Z,16.00
2017-07-08T22:39:59.528Z,16.00
2017-07-08T22:42:27.353Z,16.00
2017-07-08T22:44:55.880Z,16.00
2017-07-08T22:47:23.648Z,15.90
2017-07-08T22:49:51.443Z,15.90
2017-07-08T22:52:19.212Z,15.90
2017-07-08T22:54:47.814Z,15.90
2017-07-08T22:57:15.582Z,15.90
2017-07-08T22:59:43.405Z,15.90
2017-07-08T23:02:11.214Z,15.90
2017-07-08T23:04:38.981Z,15.80
2017-07-08T23:07:06.801Z,15.80
2017-07-08T23:09:34.561Z,15.80
2017-07-08T23:12:02.316Z,15.80
2017-07-08T23:14:30.103Z,15.90
2017-07-08T23:16:58.637Z,15.90
2017-07-08T23:19:26.478Z,15.90
2017-07-08T23:21:54.253Z,15.80
2017-07-08T23:24:22.029Z,15.80
2017-07-08T23:26:49.824Z,15.70
2017-07-08T23:29:18.366Z,15.70
2017-07-08T23:31:46.204Z,15.60
2017-07-08T23:34:13.968Z,15.70
2017-07-08T23:36:41.739Z,15.80
2017-07-08T23:39:09.547Z,15.80
2017-07-08T23:41:38.090Z,15.50
2017-07-08T23:44:05.927Z,15.50
2017-07-08T23:46:33.692Z,15.50
2017-07-08T23:49:01.454Z,15.40
2017-07-08T23:51:29.249Z,15.40
2017-07-08T23:53:57.018Z,15.40
2017-07-08T23:56:24.836Z,15.40
2017-07-08T23:58:52.616Z,15.40
